• Join FlightAware (Why Join?)
  • Login
  • US Flag 
09:57PM EST


 

Airport Tracker/Info


-or-


 

Live Flight TrackerFlight Track Log ✈ SWA395 ✈ 21-Apr-2013 ✈ KTUL - KLAS

Flight Track Log - Related Links

Times and Time Zones

All times are in EDT time to prevent confusion due to time zone crossing. See the SWA395 flight status page for this flight to view local times or setup timezone preferences in your user account.

Time Position Orientation Groundspeed Altitude Reporting Facility
EDT Latitude Longitude Course Direction KTS MPH feet Rate Location/Type
04:41PM 36.1953 -95.8633 103° East 186 214 1,500  Level Kansas City Center
04:42PM 36.1872 -95.8203 103° East 197 227 2,800 2,460 Climbing Kansas City Center
04:43PM 36.1464 -95.8567 216° Southwest 256 295 5,600 3,000 Climbing Kansas City Center
04:44PM 36.1419 -95.9517 267° West 269 310 9,200 2,580 Climbing Kansas City Center
04:45PM 36.1333 -96.0497 264° West 283 326 11,300 2,400 Climbing Kansas City Center
04:46PM 36.1203 -96.1714 262° West 345 397 14,100 2,460 Climbing Kansas City Center
04:47PM 36.0992 -96.2933 258° West 359 413 16,500 2,400 Climbing Kansas City Center
04:48PM 36.0775 -96.4206 258° West 373 429 19,200 2,640 Climbing Kansas City Center
04:49PM 36.0525 -96.5781 259° West 385 443 21,900 2,220 Climbing Kansas City Center
04:50PM 36.0289 -96.7156 258° West 397 457 23,800 1,740 Climbing Kansas City Center
04:51PM 36.0061 -96.8550 259° West 411 473 25,600 1,800 Climbing Kansas City Center
04:52PM 35.9825 -96.9931 258° West 414 476 27,600 1,920 Climbing Kansas City Center
04:53PM 35.9589 -97.1294 258° West 412 474 29,600 1,620 Climbing Kansas City Center
04:54PM 35.9361 -97.2639 258° West 408 470 31,000 1,800 Climbing Kansas City Center
04:55PM 35.9086 -97.4233 258° West 401 461 33,400 1,980 Climbing Kansas City Center
04:56PM 35.8861 -97.5508 258° West 390 449 35,200 1,200 Climbing Kansas City Center
04:57PM 35.8661 -97.6706 258° West 370 426 36,000 480 Climbing Kansas City Center
04:58PM 35.8542 -97.7439 259° West 373 429 36,000  Level Fort Worth Center
04:59PM 35.8308 -97.8514 255° West 367 422 36,000  Level Fort Worth Center
05:00PM 35.8094 -97.9792 258° West 362 417 36,000  Level Fort Worth Center
05:01PM 35.7942 -98.1019 261° West 362 417 36,000  Level Fort Worth Center
05:02PM 35.7769 -98.2244 260° West 362 417 36,000  Level Fort Worth Center
05:03PM 35.7633 -98.3447 262° West 362 417 36,000  Level Fort Worth Center
05:04PM 35.7436 -98.4647 259° West 362 417 36,000  Level Fort Worth Center
05:05PM 35.7281 -98.5844 261° West 362 417 36,000  Level Fort Worth Center
05:06PM 35.7144 -98.7044 262° West 362 417 36,000  Level Fort Worth Center
05:07PM 35.6986 -98.8244 261° West 362 417 36,000  Level Fort Worth Center
05:08PM 35.6803 -98.9442 259° West 362 417 36,000  Level Fort Worth Center
05:09PM 35.6642 -99.0639 261° West 357 411 36,000  Level Fort Worth Center
05:10PM 35.6500 -99.1836 262° West 357 411 36,000  Level Fort Worth Center
05:11PM 35.6361 -99.2806 260° West 357 411 36,000  Level Fort Worth Center
05:12PM 35.6481 -99.4989 274° West 352 405 36,000  Level Albuquerque Center
05:13PM 35.6564 -99.6181 275° West 350 403 36,000  Level Albuquerque Center
05:14PM 35.6594 -99.7386 272° West 351 404 36,000  Level Albuquerque Center
05:16PM 35.6642 -99.8842 272° West 353 406 36,000  Level Albuquerque Center
05:17PM 35.6672 -100.0047 272° West 353 406 36,000  Level Albuquerque Center
05:18PM 35.6703 -100.1247 272° West 352 405 36,000  Level Albuquerque Center
05:19PM 35.6733 -100.2461 272° West 354 407 36,000  Level Albuquerque Center
05:20PM 35.6775 -100.3675 272° West 355 409 36,000  Level Albuquerque Center
05:21PM 35.6794 -100.4900 271° West 356 410 36,000  Level Albuquerque Center
05:22PM 35.6822 -100.6117 272° West 356 410 36,000  Level Albuquerque Center
05:23PM 35.6850 -100.7528 271° West 360 414 36,000  Level Albuquerque Center
05:24PM 35.6883 -100.8747 272° West 360 414 36,000  Level Albuquerque Center
05:25PM 35.6908 -100.9983 271° West 362 417 36,000  Level Albuquerque Center
05:26PM 35.6936 -101.1469 271° West 364 419 36,000  Level Albuquerque Center
05:27PM 35.6958 -101.2725 271° West 368 423 36,000  Level Albuquerque Center
05:28PM 35.6975 -101.3972 271° West 368 423 36,000  Level Albuquerque Center
05:29PM 35.6992 -101.5211 271° West 366 421 36,000  Level Albuquerque Center
05:30PM 35.7008 -101.6461 271° West 368 423 36,000  Level Albuquerque Center
05:31PM 35.7039 -101.7936 272° West 364 419 36,000  Level Albuquerque Center
05:32PM 35.7044 -101.9175 270° West 365 420 36,000  Level Albuquerque Center
05:33PM 35.7058 -102.0394 271° West 362 417 36,000  Level Albuquerque Center
05:34PM 35.7072 -102.1622 271° West 361 415 36,000  Level Albuquerque Center
05:35PM 35.7083 -102.2836 271° West 359 413 36,000  Level Albuquerque Center
05:36PM 35.7083 -102.4064 270° West 360 414 36,000  Level Albuquerque Center
05:37PM 35.7111 -102.5539 271° West 362 417 36,000  Level Albuquerque Center
05:38PM 35.7106 -102.6761 270° West 360 414 36,000  Level Albuquerque Center
05:39PM 35.7122 -102.7992 271° West 361 415 36,000  Level Albuquerque Center
05:40PM 35.7131 -102.9236 271° West 363 418 36,000  Level Albuquerque Center
05:41PM 35.7136 -103.0506 270° West 367 422 36,000  Level Albuquerque Center
05:42PM 35.7142 -103.1956 270° West 363 418 36,000  Level Albuquerque Center
05:43PM 35.7147 -103.3219 270° West 365 420 36,000  Level Albuquerque Center
05:44PM 35.7142 -103.4481 270° West 367 422 36,000  Level Albuquerque Center
05:45PM 35.7131 -103.5739 269° West 366 421 36,000  Level Albuquerque Center
05:47PM 35.7136 -103.7006 270° West 368 423 36,000  Level Albuquerque Center
05:48PM 35.7133 -103.8272 270° West 369 425 36,000  Level Albuquerque Center
05:49PM 35.7128 -103.9764 270° West 371 427 36,000  Level Albuquerque Center
05:50PM 35.7122 -104.1025 270° West 370 426 36,000  Level Albuquerque Center
05:51PM 35.7111 -104.2294 269° West 370 426 36,000  Level Albuquerque Center
05:52PM 35.7100 -104.3578 269° West 373 429 36,000  Level Albuquerque Center
05:53PM 35.7092 -104.4867 270° West 375 432 36,000  Level Albuquerque Center
05:54PM 35.7075 -104.6136 269° West 372 428 36,000  Level Albuquerque Center
05:55PM 35.7061 -104.7600 269° West 365 420 36,000  Level Albuquerque Center
05:56PM 35.7044 -104.8864 269° West 367 422 36,000  Level Albuquerque Center
05:57PM 35.7028 -105.0136 269° West 369 425 36,000  Level Albuquerque Center
05:58PM 35.7011 -105.1397 269° West 367 422 36,000  Level Albuquerque Center
05:59PM 35.6994 -105.2667 269° West 368 423 36,000  Level Albuquerque Center
06:00PM 35.6969 -105.3925 269° West 367 422 36,000  Level Albuquerque Center
06:01PM 35.6953 -105.5186 269° West 367 422 36,000  Level Albuquerque Center
06:02PM 35.6928 -105.6603 269° West 375 432 36,000  Level Albuquerque Center
06:03PM 35.6906 -105.7878 269° West 376 433 36,000  Level Albuquerque Center
06:04PM 35.6883 -105.9161 269° West 376 433 36,000  Level Albuquerque Center
06:05PM 35.6858 -106.0450 269° West 378 435 36,000  Level Albuquerque Center
06:06PM 35.6825 -106.1728 268° West 377 434 36,000  Level Albuquerque Center
06:07PM 35.6806 -106.3197 269° West 378 435 36,000  Level Albuquerque Center
06:08PM 35.6772 -106.4617 268° West 374 430 36,000  Level Albuquerque Center
06:09PM 35.6731 -106.5839 268° West 373 429 36,000  Level Albuquerque Center
06:10PM 35.6689 -106.7072 268° West 376 433 36,000  Level Albuquerque Center
06:11PM 35.6667 -106.8500 269° West 375 432 36,000  Level Albuquerque Center
06:12PM 35.6628 -106.9731 268° West 375 432 36,000  Level Albuquerque Center
06:13PM 35.6581 -107.1164 268° West 375 432 36,000  Level Albuquerque Center
06:14PM 35.6536 -107.2389 267° West 375 432 36,000  Level Albuquerque Center
06:15PM 35.6503 -107.3828 268° West 376 433 36,000  Level Albuquerque Center
06:16PM 35.6453 -107.5067 267° West 377 434 36,000  Level Albuquerque Center
06:17PM 35.6403 -107.6514 268° West 379 436 36,000  Level Albuquerque Center
06:19PM 35.6358 -107.7753 268° West 379 436 36,000  Level Albuquerque Center
06:20PM 35.6311 -107.9003 267° West 380 437 36,000  Level Albuquerque Center
06:21PM 35.6258 -108.0453 267° West 381 438 36,000  Level Albuquerque Center
06:22PM 35.6214 -108.1703 268° West 381 438 36,000  Level Albuquerque Center
06:23PM 35.6153 -108.3200 267° West 388 447 36,000  Level Albuquerque Center
06:24PM 35.6106 -108.4497 267° West 393 452 36,000  Level Albuquerque Center
06:25PM 35.6039 -108.6019 267° West 397 457 36,000  Level Albuquerque Center
06:26PM 35.5981 -108.7314 267° West 395 455 36,000  Level Albuquerque Center
06:27PM 35.5933 -108.8619 267° West 396 456 36,000  Level Albuquerque Center
06:28PM 35.5853 -109.0128 266° West 394 453 36,000  Level Albuquerque Center
06:29PM 35.5797 -109.1414 267° West 394 453 36,000  Level Albuquerque Center
06:30PM 35.5725 -109.2919 267° West 393 452 36,000  Level Albuquerque Center
06:31PM 35.5672 -109.4225 267° West 397 457 36,000  Level Albuquerque Center
06:32PM 35.5578 -109.5750 266° West 399 459 36,000  Level Albuquerque Center
06:33PM 35.5511 -109.7042 266° West 396 456 36,000  Level Albuquerque Center
06:34PM 35.5436 -109.8358 266° West 400 460 36,000  Level Albuquerque Center
06:35PM 35.5367 -109.9883 267° West 399 459 36,000  Level Albuquerque Center
06:36PM 35.5300 -110.1189 266° West 400 460 36,000  Level Albuquerque Center
06:37PM 35.5361 -110.2703 273° West 400 460 36,000 -180 Level Albuquerque Center
06:38PM 35.5428 -110.4014 274° West 400 460 35,700 -720 Descending Albuquerque Center
06:39PM 35.5469 -110.5511 272° West 396 456 34,600 -1,020 Descending Albuquerque Center
06:40PM 35.5514 -110.6833 272° West 401 461 33,700 -1,020 Descending Albuquerque Center
06:41PM 35.5581 -110.8419 273° West 412 474 32,600 -840 Descending Albuquerque Center
06:42PM 35.5639 -110.9797 273° West 419 482 32,000 -300 Descending Albuquerque Center
06:43PM 35.5681 -111.1169 272° West 420 483 32,000 -180 Level Albuquerque Center
06:44PM 35.5731 -111.2756 272° West 418 481 31,700 -660 Descending Albuquerque Center
06:45PM 35.5781 -111.4106 273° West 417 480 30,700 -840 Descending Albuquerque Center
06:46PM 35.5825 -111.5461 272° West 417 480 30,000 -360 Descending Albuquerque Center
06:47PM 35.5856 -111.7097 271° West 405 466 30,000  Level Albuquerque Center
06:48PM 35.5903 -111.8511 272° West 413 475 30,000  Level Albuquerque Center
06:49PM 35.5947 -111.9953 272° West 421 484 30,000  Level Albuquerque Center
06:50PM 35.5972 -112.1369 271° West 421 484 30,000 -480 Level Albuquerque Center
06:51PM 35.6006 -112.2794 272° West 420 483 29,100 -960 Descending Albuquerque Center
06:53PM 35.6047 -112.4200 272° West 418 481 28,100 -900 Descending Albuquerque Center
06:53PM 35.6064 -112.4775 272° West 416 479 28,000 -120 Descending Los Angeles Center
06:54PM 35.6094 -112.6281 271° West 413 475 28,000  Level Los Angeles Center
06:55PM 35.6122 -112.7714 271° West 416 479 28,000  Level Los Angeles Center
06:56PM 35.6156 -112.9119 272° West 414 476 28,000  Level Los Angeles Center
06:57PM 35.6169 -113.0531 271° West 413 475 28,000  Level Los Angeles Center
06:58PM 35.6189 -113.1964 271° West 416 479 28,000  Level Los Angeles Center
06:59PM 35.6222 -113.3456 272° West 420 483 28,000 -720 Level Los Angeles Center
07:00PM 35.6239 -113.4869 271° West 419 482 26,600 -2,100 Descending Los Angeles Center
07:01PM 35.6392 -113.6486 277° West 400 460 23,700 -2,520 Descending Los Angeles Center
07:02PM 35.6581 -113.7772 280° West 390 449 21,400 -2,220 Descending Los Angeles Center
07:03PM 35.6761 -113.9017 280° West 382 440 19,200 -2,220 Descending Los Angeles Center
07:04PM 35.6928 -114.0200 280° West 368 423 16,900 -2,160 Descending Los Angeles Center
07:05PM 35.7089 -114.1353 280° West 355 409 14,800 -2,280 Descending Los Angeles Center
07:06PM 35.7203 -114.2083 281° West 349 402 13,400 -2,280 Descending Los Angeles Center
07:06PM 35.7297 -114.2689 281° West 345 397 12,500 -1,020 Descending Los Angeles Center
07:07PM 35.7464 -114.3719 281° West 309 356 11,900 -420 Descending Los Angeles Center
07:08PM 35.8181 -114.4172 333° Northwest 307 353 11,700 -420 Descending Los Angeles Center
07:09PM 35.8892 -114.4486 340° North 259 298 11,100 -900 Descending Los Angeles Center
07:10PM 35.9539 -114.4511 358° North 249 287 9,900 -600 Descending Los Angeles Center
07:11PM 36.0325 -114.4319 11° North 264 304 9,900  Level Los Angeles Center
07:12PM 36.0811 -114.4742 325° Northwest 231 266 9,900  Level Los Angeles Center
07:13PM 36.0750 -114.5536 265° West 232 267 9,900 -360 Level Los Angeles Center
07:14PM 36.0747 -114.6308 270° West 230 265 9,200 -960 Descending Los Angeles Center
07:16PM 36.0728 -114.7194 268° West 224 258 7,900 -1,080 Descending Los Angeles Center
07:17PM 36.0753 -114.7986 272° West 229 264 6,900 -780 Descending Los Angeles Center
07:17PM 36.0747 -114.8653 269° West 207 238 6,400 -900 Descending Los Angeles Center
07:19PM 36.0742 -114.9319 269° West 196 226 5,200 -1,140 Descending Los Angeles Center
07:20PM 36.0736 -114.9986 269° West 199 229 4,200 -1,140 Descending Los Angeles Center
07:21PM 36.0725 -115.0628 269° West 167 192 3,000 -1,080 Descending Los Angeles Center
07:22PM 36.0719 -115.1192 269° West 158 182 2,100 -900 Descending Los Angeles Center
07:24PM 36.0667 -115.1500 270° West  Level FlightAware Approximate